sensor_id;sensor_type;location;lat;lon;timestamp;P1;durP1;ratioP1;P2;durP2;ratioP2
3747;SDS011;1889;50.058;8.688;2023-04-24T00:01:27;1.80;;;1.10;;
3747;SDS011;1889;50.058;8.688;2023-04-24T00:03:57;2.12;;;1.00;;
3747;SDS011;1889;50.058;8.688;2023-04-24T00:06:26;2.15;;;1.17;;
3747;SDS011;1889;50.058;8.688;2023-04-24T00:09:00;1.22;;;0.93;;
3747;SDS011;1889;50.058;8.688;2023-04-24T00:11:29;1.00;;;0.88;;
3747;SDS011;1889;50.058;8.688;2023-04-24T00:13:59;2.83;;;1.10;;
3747;SDS011;1889;50.058;8.688;2023-04-24T00:16:28;2.85;;;0.90;;
3747;SDS011;1889;50.058;8.688;2023-04-24T00:18:58;1.20;;;1.10;;
3747;SDS011;1889;50.058;8.688;2023-04-24T00:21:28;1.17;;;1.07;;
3747;SDS011;1889;50.058;8.688;2023-04-24T00:23:57;0.95;;;0.85;;
3747;SDS011;1889;50.058;8.688;2023-04-24T00:26:27;1.37;;;1.27;;
3747;SDS011;1889;50.058;8.688;2023-04-24T00:28:56;1.60;;;0.95;;
3747;SDS011;1889;50.058;8.688;2023-04-24T00:31:26;3.47;;;1.00;;
3747;SDS011;1889;50.058;8.688;2023-04-24T00:33:55;5.58;;;1.82;;
3747;SDS011;1889;50.058;8.688;2023-04-24T00:36:24;2.75;;;1.17;;
3747;SDS011;1889;50.058;8.688;2023-04-24T00:38:54;2.58;;;1.07;;
3747;SDS011;1889;50.058;8.688;2023-04-24T00:41:26;1.65;;;1.17;;
3747;SDS011;1889;50.058;8.688;2023-04-24T00:43:55;2.42;;;1.00;;
3747;SDS011;1889;50.058;8.688;2023-04-24T00:46:25;1.62;;;0.98;;
3747;SDS011;1889;50.058;8.688;2023-04-24T00:48:55;1.42;;;0.80;;
3747;SDS011;1889;50.058;8.688;2023-04-24T00:51:25;3.60;;;1.12;;
3747;SDS011;1889;50.058;8.688;2023-04-24T00:53:54;1.50;;;1.17;;
3747;SDS011;1889;50.058;8.688;2023-04-24T00:56:24;0.98;;;0.90;;
3747;SDS011;1889;50.058;8.688;2023-04-24T00:58:53;1.47;;;0.88;;
3747;SDS011;1889;50.058;8.688;2023-04-24T01:01:23;2.70;;;1.10;;
3747;SDS011;1889;50.058;8.688;2023-04-24T01:03:53;0.78;;;0.60;;
3747;SDS011;1889;50.058;8.688;2023-04-24T01:06:23;1.05;;;0.70;;
3747;SDS011;1889;50.058;8.688;2023-04-24T01:08:56;0.78;;;0.78;;
3747;SDS011;1889;50.058;8.688;2023-04-24T01:11:27;1.00;;;0.90;;
3747;SDS011;1889;50.058;8.688;2023-04-24T01:13:58;1.82;;;0.80;;
3747;SDS011;1889;50.058;8.688;2023-04-24T01:16:27;2.95;;;0.82;;
3747;SDS011;1889;50.058;8.688;2023-04-24T01:18:57;0.78;;;0.60;;
3747;SDS011;1889;50.058;8.688;2023-04-24T01:21:28;1.67;;;0.90;;
3747;SDS011;1889;50.058;8.688;2023-04-24T01:23:58;1.67;;;1.45;;
3747;SDS011;1889;50.058;8.688;2023-04-24T01:26:27;2.80;;;1.10;;
3747;SDS011;1889;50.058;8.688;2023-04-24T01:28:57;1.50;;;1.20;;
3747;SDS011;1889;50.058;8.688;2023-04-24T01:31:26;2.02;;;1.00;;
3747;SDS011;1889;50.058;8.688;2023-04-24T01:33:56;2.80;;;0.70;;
3747;SDS011;1889;50.058;8.688;2023-04-24T01:36:26;0.80;;;0.70;;
3747;SDS011;1889;50.058;8.688;2023-04-24T01:38:56;2.80;;;1.45;;
3747;SDS011;1889;50.058;8.688;2023-04-24T01:41:26;1.85;;;1.05;;
3747;SDS011;1889;50.058;8.688;2023-04-24T01:43:56;0.78;;;0.70;;
3747;SDS011;1889;50.058;8.688;2023-04-24T01:46:26;1.17;;;1.00;;
3747;SDS011;1889;50.058;8.688;2023-04-24T01:48:55;2.08;;;1.00;;
3747;SDS011;1889;50.058;8.688;2023-04-24T01:51:25;2.17;;;0.72;;
3747;SDS011;1889;50.058;8.688;2023-04-24T01:53:54;1.77;;;1.07;;
3747;SDS011;1889;50.058;8.688;2023-04-24T01:56:24;2.98;;;0.85;;
3747;SDS011;1889;50.058;8.688;2023-04-24T01:58:53;1.60;;;0.90;;
3747;SDS011;1889;50.058;8.688;2023-04-24T02:01:23;1.42;;;0.90;;
3747;SDS011;1889;50.058;8.688;2023-04-24T02:03:53;1.52;;;0.75;;
3747;SDS011;1889;50.058;8.688;2023-04-24T02:06:22;2.25;;;1.05;;
3747;SDS011;1889;50.058;8.688;2023-04-24T02:08:51;1.70;;;1.02;;
3747;SDS011;1889;50.058;8.688;2023-04-24T02:11:21;1.07;;;0.90;;
3747;SDS011;1889;50.058;8.688;2023-04-24T02:13:50;3.55;;;1.00;;
3747;SDS011;1889;50.058;8.688;2023-04-24T02:16:20;3.12;;;0.98;;
3747;SDS011;1889;50.058;8.688;2023-04-24T02:18:50;1.32;;;0.98;;
3747;SDS011;1889;50.058;8.688;2023-04-24T02:21:19;1.98;;;0.95;;
3747;SDS011;1889;50.058;8.688;2023-04-24T02:23:48;2.20;;;1.05;;
3747;SDS011;1889;50.058;8.688;2023-04-24T02:26:17;2.70;;;1.00;;
3747;SDS011;1889;50.058;8.688;2023-04-24T02:28:47;1.52;;;0.90;;
3747;SDS011;1889;50.058;8.688;2023-04-24T02:31:16;2.52;;;1.10;;
3747;SDS011;1889;50.058;8.688;2023-04-24T02:33:46;1.12;;;0.62;;
3747;SDS011;1889;50.058;8.688;2023-04-24T02:36:15;1.00;;;0.80;;
3747;SDS011;1889;50.058;8.688;2023-04-24T02:38:44;2.05;;;0.90;;
3747;SDS011;1889;50.058;8.688;2023-04-24T02:41:14;2.65;;;0.95;;
3747;SDS011;1889;50.058;8.688;2023-04-24T02:43:43;1.27;;;0.90;;
3747;SDS011;1889;50.058;8.688;2023-04-24T02:46:12;2.15;;;1.00;;
3747;SDS011;1889;50.058;8.688;2023-04-24T02:48:42;1.98;;;1.10;;
3747;SDS011;1889;50.058;8.688;2023-04-24T02:51:11;1.00;;;0.70;;
3747;SDS011;1889;50.058;8.688;2023-04-24T02:53:40;3.08;;;1.02;;
3747;SDS011;1889;50.058;8.688;2023-04-24T02:56:09;1.65;;;0.90;;
3747;SDS011;1889;50.058;8.688;2023-04-24T02:58:40;1.82;;;0.90;;
3747;SDS011;1889;50.058;8.688;2023-04-24T03:01:10;2.22;;;1.00;;
3747;SDS011;1889;50.058;8.688;2023-04-24T03:03:40;1.30;;;1.00;;
3747;SDS011;1889;50.058;8.688;2023-04-24T03:06:09;2.15;;;1.00;;
3747;SDS011;1889;50.058;8.688;2023-04-24T03:08:38;1.35;;;0.80;;
3747;SDS011;1889;50.058;8.688;2023-04-24T03:11:07;3.50;;;1.00;;
3747;SDS011;1889;50.058;8.688;2023-04-24T03:13:37;2.20;;;1.20;;
3747;SDS011;1889;50.058;8.688;2023-04-24T03:16:07;2.02;;;1.15;;
3747;SDS011;1889;50.058;8.688;2023-04-24T03:18:36;1.75;;;1.15;;
3747;SDS011;1889;50.058;8.688;2023-04-24T03:21:05;3.55;;;0.90;;
3747;SDS011;1889;50.058;8.688;2023-04-24T03:23:34;1.17;;;0.78;;
3747;SDS011;1889;50.058;8.688;2023-04-24T03:26:04;2.27;;;1.00;;
3747;SDS011;1889;50.058;8.688;2023-04-24T03:28:33;2.05;;;1.25;;
3747;SDS011;1889;50.058;8.688;2023-04-24T03:31:03;1.10;;;1.00;;
3747;SDS011;1889;50.058;8.688;2023-04-24T03:33:32;2.50;;;1.10;;
3747;SDS011;1889;50.058;8.688;2023-04-24T03:36:02;0.98;;;0.88;;
3747;SDS011;1889;50.058;8.688;2023-04-24T03:38:32;1.02;;;0.80;;
3747;SDS011;1889;50.058;8.688;2023-04-24T03:41:01;1.07;;;0.80;;
3747;SDS011;1889;50.058;8.688;2023-04-24T03:43:30;2.30;;;0.98;;
3747;SDS011;1889;50.058;8.688;2023-04-24T03:46:01;1.12;;;0.85;;
3747;SDS011;1889;50.058;8.688;2023-04-24T03:48:31;1.20;;;1.10;;
3747;SDS011;1889;50.058;8.688;2023-04-24T03:51:00;1.12;;;1.00;;
3747;SDS011;1889;50.058;8.688;2023-04-24T03:53:30;2.30;;;1.22;;
3747;SDS011;1889;50.058;8.688;2023-04-24T03:55:59;4.28;;;1.45;;
3747;SDS011;1889;50.058;8.688;2023-04-24T03:58:28;1.60;;;1.00;;
3747;SDS011;1889;50.058;8.688;2023-04-24T04:00:58;2.50;;;0.93;;
3747;SDS011;1889;50.058;8.688;2023-04-24T04:03:27;2.12;;;1.25;;
3747;SDS011;1889;50.058;8.688;2023-04-24T04:05:56;4.87;;;1.42;;
3747;SDS011;1889;50.058;8.688;2023-04-24T04:08:26;2.55;;;1.30;;
3747;SDS011;1889;50.058;8.688;2023-04-24T04:10:55;3.22;;;1.67;;
3747;SDS011;1889;50.058;8.688;2023-04-24T04:13:24;2.33;;;1.10;;
3747;SDS011;1889;50.058;8.688;2023-04-24T04:15:54;1.25;;;1.10;;
3747;SDS011;1889;50.058;8.688;2023-04-24T04:18:23;5.22;;;1.62;;
3747;SDS011;1889;50.058;8.688;2023-04-24T04:20:52;2.58;;;1.10;;
3747;SDS011;1889;50.058;8.688;2023-04-24T04:23:22;2.47;;;1.20;;
3747;SDS011;1889;50.058;8.688;2023-04-24T04:25:51;1.45;;;1.35;;
3747;SDS011;1889;50.058;8.688;2023-04-24T04:28:22;1.82;;;1.07;;
3747;SDS011;1889;50.058;8.688;2023-04-24T04:30:52;2.65;;;1.10;;
3747;SDS011;1889;50.058;8.688;2023-04-24T04:33:24;0.95;;;0.90;;
3747;SDS011;1889;50.058;8.688;2023-04-24T04:35:54;1.20;;;1.10;;
3747;SDS011;1889;50.058;8.688;2023-04-24T04:38:24;6.55;;;1.20;;
3747;SDS011;1889;50.058;8.688;2023-04-24T04:40:55;1.98;;;1.30;;
3747;SDS011;1889;50.058;8.688;2023-04-24T04:43:24;2.37;;;1.47;;
3747;SDS011;1889;50.058;8.688;2023-04-24T04:45:54;0.98;;;0.98;;
3747;SDS011;1889;50.058;8.688;2023-04-24T04:48:23;1.17;;;1.10;;
3747;SDS011;1889;50.058;8.688;2023-04-24T04:50:52;2.15;;;1.15;;
3747;SDS011;1889;50.058;8.688;2023-04-24T04:53:22;2.05;;;1.27;;
3747;SDS011;1889;50.058;8.688;2023-04-24T04:55:51;2.00;;;1.10;;
3747;SDS011;1889;50.058;8.688;2023-04-24T04:58:21;1.02;;;1.00;;
3747;SDS011;1889;50.058;8.688;2023-04-24T05:00:50;1.30;;;1.30;;
3747;SDS011;1889;50.058;8.688;2023-04-24T05:03:19;1.42;;;1.27;;
3747;SDS011;1889;50.058;8.688;2023-04-24T05:05:49;1.85;;;1.20;;
3747;SDS011;1889;50.058;8.688;2023-04-24T05:08:18;1.40;;;1.30;;
3747;SDS011;1889;50.058;8.688;2023-04-24T05:10:47;3.90;;;1.25;;
3747;SDS011;1889;50.058;8.688;2023-04-24T05:13:17;1.57;;;1.02;;
3747;SDS011;1889;50.058;8.688;2023-04-24T05:15:46;2.80;;;1.10;;
3747;SDS011;1889;50.058;8.688;2023-04-24T05:18:15;1.30;;;1.20;;
3747;SDS011;1889;50.058;8.688;2023-04-24T05:20:45;1.27;;;1.02;;
3747;SDS011;1889;50.058;8.688;2023-04-24T05:23:15;1.50;;;1.40;;
3747;SDS011;1889;50.058;8.688;2023-04-24T05:25:44;1.22;;;1.12;;
3747;SDS011;1889;50.058;8.688;2023-04-24T05:28:13;1.62;;;1.37;;
3747;SDS011;1889;50.058;8.688;2023-04-24T05:30:43;1.47;;;1.32;;
3747;SDS011;1889;50.058;8.688;2023-04-24T05:33:12;1.35;;;1.25;;
3747;SDS011;1889;50.058;8.688;2023-04-24T05:35:42;1.20;;;1.10;;
3747;SDS011;1889;50.058;8.688;2023-04-24T05:38:13;1.40;;;1.30;;
3747;SDS011;1889;50.058;8.688;2023-04-24T05:40:44;1.15;;;1.10;;
3747;SDS011;1889;50.058;8.688;2023-04-24T05:43:14;2.08;;;1.52;;
3747;SDS011;1889;50.058;8.688;2023-04-24T05:45:43;1.85;;;1.70;;
3747;SDS011;1889;50.058;8.688;2023-04-24T05:48:12;1.52;;;1.42;;
3747;SDS011;1889;50.058;8.688;2023-04-24T05:50:42;1.75;;;1.55;;
3747;SDS011;1889;50.058;8.688;2023-04-24T05:53:11;1.72;;;1.50;;
3747;SDS011;1889;50.058;8.688;2023-04-24T05:55:41;2.15;;;1.90;;
3747;SDS011;1889;50.058;8.688;2023-04-24T05:58:10;8.10;;;3.67;;
3747;SDS011;1889;50.058;8.688;2023-04-24T06:00:40;2.20;;;1.35;;
3747;SDS011;1889;50.058;8.688;2023-04-24T06:03:11;1.62;;;1.47;;
3747;SDS011;1889;50.058;8.688;2023-04-24T06:05:40;2.65;;;1.42;;
3747;SDS011;1889;50.058;8.688;2023-04-24T06:08:09;3.00;;;1.30;;
3747;SDS011;1889;50.058;8.688;2023-04-24T06:10:39;1.47;;;1.37;;
3747;SDS011;1889;50.058;8.688;2023-04-24T06:13:08;1.32;;;1.22;;
3747;SDS011;1889;50.058;8.688;2023-04-24T06:15:38;1.90;;;1.70;;
3747;SDS011;1889;50.058;8.688;2023-04-24T06:18:08;2.40;;;1.90;;
3747;SDS011;1889;50.058;8.688;2023-04-24T06:20:40;1.52;;;1.42;;
3747;SDS011;1889;50.058;8.688;2023-04-24T06:23:10;2.27;;;1.72;;
3747;SDS011;1889;50.058;8.688;2023-04-24T06:25:39;3.92;;;1.37;;
3747;SDS011;1889;50.058;8.688;2023-04-24T06:28:09;1.52;;;1.42;;
3747;SDS011;1889;50.058;8.688;2023-04-24T06:30:38;2.30;;;1.50;;
3747;SDS011;1889;50.058;8.688;2023-04-24T06:33:08;1.40;;;1.30;;
3747;SDS011;1889;50.058;8.688;2023-04-24T06:35:37;1.70;;;1.60;;
3747;SDS011;1889;50.058;8.688;2023-04-24T06:38:07;3.08;;;1.70;;
3747;SDS011;1889;50.058;8.688;2023-04-24T06:40:36;3.08;;;1.47;;
3747;SDS011;1889;50.058;8.688;2023-04-24T06:43:06;2.72;;;1.70;;
3747;SDS011;1889;50.058;8.688;2023-04-24T06:45:35;2.40;;;1.52;;
3747;SDS011;1889;50.058;8.688;2023-04-24T06:48:05;2.17;;;1.98;;
3747;SDS011;1889;50.058;8.688;2023-04-24T06:50:35;3.62;;;3.08;;
3747;SDS011;1889;50.058;8.688;2023-04-24T06:53:04;3.05;;;2.70;;
3747;SDS011;1889;50.058;8.688;2023-04-24T06:55:33;2.60;;;2.40;;
3747;SDS011;1889;50.058;8.688;2023-04-24T06:58:04;2.05;;;1.95;;
3747;SDS011;1889;50.058;8.688;2023-04-24T07:00:34;2.20;;;1.80;;
3747;SDS011;1889;50.058;8.688;2023-04-24T07:03:03;2.65;;;2.10;;
3747;SDS011;1889;50.058;8.688;2023-04-24T07:05:33;2.35;;;2.15;;
3747;SDS011;1889;50.058;8.688;2023-04-24T07:08:02;2.47;;;2.20;;
3747;SDS011;1889;50.058;8.688;2023-04-24T07:10:32;2.33;;;2.12;;
3747;SDS011;1889;50.058;8.688;2023-04-24T07:13:02;2.22;;;2.02;;
3747;SDS011;1889;50.058;8.688;2023-04-24T07:15:32;2.47;;;2.17;;
3747;SDS011;1889;50.058;8.688;2023-04-24T07:18:01;2.58;;;2.37;;
3747;SDS011;1889;50.058;8.688;2023-04-24T07:20:30;2.65;;;2.00;;
3747;SDS011;1889;50.058;8.688;2023-04-24T07:23:00;2.08;;;1.87;;
3747;SDS011;1889;50.058;8.688;2023-04-24T07:25:30;3.50;;;1.77;;
3747;SDS011;1889;50.058;8.688;2023-04-24T07:27:59;1.80;;;1.70;;
3747;SDS011;1889;50.058;8.688;2023-04-24T07:30:28;2.60;;;2.00;;
3747;SDS011;1889;50.058;8.688;2023-04-24T07:33:00;1.62;;;1.52;;
3747;SDS011;1889;50.058;8.688;2023-04-24T07:35:29;1.85;;;1.65;;
3747;SDS011;1889;50.058;8.688;2023-04-24T07:37:58;2.65;;;2.02;;
3747;SDS011;1889;50.058;8.688;2023-04-24T07:40:28;2.30;;;2.10;;
3747;SDS011;1889;50.058;8.688;2023-04-24T07:42:57;2.00;;;1.80;;
3747;SDS011;1889;50.058;8.688;2023-04-24T07:45:27;3.05;;;1.82;;
3747;SDS011;1889;50.058;8.688;2023-04-24T07:47:56;2.00;;;1.82;;
3747;SDS011;1889;50.058;8.688;2023-04-24T07:50:26;2.58;;;1.60;;
3747;SDS011;1889;50.058;8.688;2023-04-24T07:52:55;2.80;;;2.20;;
3747;SDS011;1889;50.058;8.688;2023-04-24T07:55:24;2.90;;;2.12;;
3747;SDS011;1889;50.058;8.688;2023-04-24T07:57:54;2.90;;;2.62;;
3747;SDS011;1889;50.058;8.688;2023-04-24T08:00:23;3.55;;;2.27;;
3747;SDS011;1889;50.058;8.688;2023-04-24T08:02:52;2.33;;;2.00;;
3747;SDS011;1889;50.058;8.688;2023-04-24T08:05:22;11.03;;;2.75;;
3747;SDS011;1889;50.058;8.688;2023-04-24T08:07:52;2.27;;;2.08;;
3747;SDS011;1889;50.058;8.688;2023-04-24T08:10:22;2.10;;;1.90;;
3747;SDS011;1889;50.058;8.688;2023-04-24T08:12:52;2.92;;;2.00;;
3747;SDS011;1889;50.058;8.688;2023-04-24T08:15:22;3.05;;;1.75;;
3747;SDS011;1889;50.058;8.688;2023-04-24T08:17:52;2.72;;;2.25;;
3747;SDS011;1889;50.058;8.688;2023-04-24T08:20:21;2.87;;;2.15;;
3747;SDS011;1889;50.058;8.688;2023-04-24T08:22:51;3.72;;;2.35;;
3747;SDS011;1889;50.058;8.688;2023-04-24T08:25:21;2.52;;;1.70;;
3747;SDS011;1889;50.058;8.688;2023-04-24T08:27:53;2.92;;;1.85;;
3747;SDS011;1889;50.058;8.688;2023-04-24T08:30:23;7.00;;;3.17;;
3747;SDS011;1889;50.058;8.688;2023-04-24T08:32:52;1.70;;;1.60;;
3747;SDS011;1889;50.058;8.688;2023-04-24T08:35:21;1.95;;;1.82;;
3747;SDS011;1889;50.058;8.688;2023-04-24T08:37:51;1.80;;;1.70;;
3747;SDS011;1889;50.058;8.688;2023-04-24T08:40:22;2.15;;;1.70;;
3747;SDS011;1889;50.058;8.688;2023-04-24T08:42:54;1.98;;;1.70;;
3747;SDS011;1889;50.058;8.688;2023-04-24T08:45:24;2.27;;;1.70;;
3747;SDS011;1889;50.058;8.688;2023-04-24T08:47:53;1.87;;;1.70;;
3747;SDS011;1889;50.058;8.688;2023-04-24T08:50:24;2.72;;;1.60;;
3747;SDS011;1889;50.058;8.688;2023-04-24T08:52:54;1.75;;;1.62;;
3747;SDS011;1889;50.058;8.688;2023-04-24T08:55:24;1.95;;;1.72;;
3747;SDS011;1889;50.058;8.688;2023-04-24T08:57:54;1.92;;;1.77;;
3747;SDS011;1889;50.058;8.688;2023-04-24T09:00:23;2.52;;;1.80;;
3747;SDS011;1889;50.058;8.688;2023-04-24T09:02:54;1.92;;;1.65;;
3747;SDS011;1889;50.058;8.688;2023-04-24T09:05:24;1.92;;;1.57;;
3747;SDS011;1889;50.058;8.688;2023-04-24T09:07:55;3.55;;;1.55;;
3747;SDS011;1889;50.058;8.688;2023-04-24T09:10:25;3.55;;;1.60;;
3747;SDS011;1889;50.058;8.688;2023-04-24T09:12:56;1.60;;;1.50;;
3747;SDS011;1889;50.058;8.688;2023-04-24T09:15:29;3.75;;;1.65;;
3747;SDS011;1889;50.058;8.688;2023-04-24T09:17:58;2.40;;;1.60;;
3747;SDS011;1889;50.058;8.688;2023-04-24T09:20:27;2.17;;;1.98;;
3747;SDS011;1889;50.058;8.688;2023-04-24T09:22:57;1.70;;;1.60;;
3747;SDS011;1889;50.058;8.688;2023-04-24T09:25:33;2.00;;;1.60;;
3747;SDS011;1889;50.058;8.688;2023-04-24T09:28:04;1.40;;;1.30;;
3747;SDS011;1889;50.058;8.688;2023-04-24T09:30:33;2.05;;;1.85;;
3747;SDS011;1889;50.058;8.688;2023-04-24T09:33:25;1.77;;;1.67;;
3747;SDS011;1889;50.058;8.688;2023-04-24T09:35:49;1.75;;;1.65;;
3747;SDS011;1889;50.058;8.688;2023-04-24T09:38:21;2.22;;;1.77;;
3747;SDS011;1889;50.058;8.688;2023-04-24T09:41:14;1.70;;;1.60;;
3747;SDS011;1889;50.058;8.688;2023-04-24T09:43:46;1.98;;;1.77;;
3747;SDS011;1889;50.058;8.688;2023-04-24T09:46:15;1.80;;;1.70;;
3747;SDS011;1889;50.058;8.688;2023-04-24T09:48:48;1.87;;;1.55;;
3747;SDS011;1889;50.058;8.688;2023-04-24T09:51:17;2.80;;;1.67;;
3747;SDS011;1889;50.058;8.688;2023-04-24T09:53:50;1.90;;;1.75;;
3747;SDS011;1889;50.058;8.688;2023-04-24T09:56:21;2.25;;;1.77;;
3747;SDS011;1889;50.058;8.688;2023-04-24T09:58:50;2.25;;;1.50;;
3747;SDS011;1889;50.058;8.688;2023-04-24T10:01:43;1.85;;;1.50;;
3747;SDS011;1889;50.058;8.688;2023-04-24T10:04:00;2.47;;;1.82;;
3747;SDS011;1889;50.058;8.688;2023-04-24T10:06:32;1.35;;;1.22;;
3747;SDS011;1889;50.058;8.688;2023-04-24T10:09:03;2.80;;;1.42;;
3747;SDS011;1889;50.058;8.688;2023-04-24T10:11:33;4.60;;;2.00;;
3747;SDS011;1889;50.058;8.688;2023-04-24T10:14:03;1.45;;;1.35;;
3747;SDS011;1889;50.058;8.688;2023-04-24T10:16:32;1.60;;;1.30;;
3747;SDS011;1889;50.058;8.688;2023-04-24T10:19:03;1.60;;;1.40;;
3747;SDS011;1889;50.058;8.688;2023-04-24T10:21:32;1.50;;;1.40;;
3747;SDS011;1889;50.058;8.688;2023-04-24T10:24:02;1.57;;;1.40;;
3747;SDS011;1889;50.058;8.688;2023-04-24T10:26:34;1.90;;;1.70;;
3747;SDS011;1889;50.058;8.688;2023-04-24T10:29:05;3.77;;;1.67;;
3747;SDS011;1889;50.058;8.688;2023-04-24T10:31:36;1.32;;;1.17;;
3747;SDS011;1889;50.058;8.688;2023-04-24T10:34:07;1.22;;;1.12;;
3747;SDS011;1889;50.058;8.688;2023-04-24T10:36:44;1.40;;;1.30;;
3747;SDS011;1889;50.058;8.688;2023-04-24T10:39:11;1.40;;;1.30;;
3747;SDS011;1889;50.058;8.688;2023-04-24T10:41:42;2.25;;;1.40;;
3747;SDS011;1889;50.058;8.688;2023-04-24T10:44:12;1.55;;;1.32;;
3747;SDS011;1889;50.058;8.688;2023-04-24T10:46:44;1.77;;;1.30;;
3747;SDS011;1889;50.058;8.688;2023-04-24T10:49:18;1.45;;;1.35;;
3747;SDS011;1889;50.058;8.688;2023-04-24T10:52:04;1.50;;;1.22;;
3747;SDS011;1889;50.058;8.688;2023-04-24T10:54:34;1.70;;;1.12;;
3747;SDS011;1889;50.058;8.688;2023-04-24T10:59:51;1.32;;;0.90;;
3747;SDS011;1889;50.058;8.688;2023-04-24T11:02:35;1.70;;;0.98;;
3747;SDS011;1889;50.058;8.688;2023-04-24T11:04:55;1.30;;;1.15;;
3747;SDS011;1889;50.058;8.688;2023-04-24T11:07:24;2.92;;;1.10;;
3747;SDS011;1889;50.058;8.688;2023-04-24T11:10:00;1.30;;;1.20;;
3747;SDS011;1889;50.058;8.688;2023-04-24T11:12:29;1.25;;;1.25;;
3747;SDS011;1889;50.058;8.688;2023-04-24T11:15:00;1.75;;;1.50;;
3747;SDS011;1889;50.058;8.688;2023-04-24T11:17:30;1.50;;;1.40;;
3747;SDS011;1889;50.058;8.688;2023-04-24T11:20:11;1.60;;;1.50;;
3747;SDS011;1889;50.058;8.688;2023-04-24T11:22:47;1.50;;;1.40;;
3747;SDS011;1889;50.058;8.688;2023-04-24T11:25:18;1.52;;;1.42;;
3747;SDS011;1889;50.058;8.688;2023-04-24T11:27:50;1.40;;;1.20;;
3747;SDS011;1889;50.058;8.688;2023-04-24T11:30:21;0.82;;;0.82;;
3747;SDS011;1889;50.058;8.688;2023-04-24T11:32:50;0.98;;;0.90;;
3747;SDS011;1889;50.058;8.688;2023-04-24T11:35:20;0.90;;;0.90;;
3747;SDS011;1889;50.058;8.688;2023-04-24T11:37:52;0.90;;;0.90;;
3747;SDS011;1889;50.058;8.688;2023-04-24T11:40:22;1.55;;;1.12;;
3747;SDS011;1889;50.058;8.688;2023-04-24T11:42:53;0.88;;;0.88;;
3747;SDS011;1889;50.058;8.688;2023-04-24T11:45:28;0.90;;;0.90;;
3747;SDS011;1889;50.058;8.688;2023-04-24T11:47:59;0.90;;;0.90;;
3747;SDS011;1889;50.058;8.688;2023-04-24T11:50:28;0.80;;;0.80;;
3747;SDS011;1889;50.058;8.688;2023-04-24T11:52:57;2.37;;;1.00;;
3747;SDS011;1889;50.058;8.688;2023-04-24T11:55:28;1.05;;;0.93;;
3747;SDS011;1889;50.058;8.688;2023-04-24T11:57:58;1.35;;;0.80;;
3747;SDS011;1889;50.058;8.688;2023-04-24T12:00:30;0.82;;;0.60;;
3747;SDS011;1889;50.058;8.688;2023-04-24T12:03:04;0.88;;;0.60;;
3747;SDS011;1889;50.058;8.688;2023-04-24T12:05:38;0.60;;;0.60;;
3747;SDS011;1889;50.058;8.688;2023-04-24T12:08:07;0.57;;;0.57;;
3747;SDS011;1889;50.058;8.688;2023-04-24T12:10:37;0.60;;;0.60;;
3747;SDS011;1889;50.058;8.688;2023-04-24T12:13:07;2.52;;;0.60;;
3747;SDS011;1889;50.058;8.688;2023-04-24T12:15:39;0.90;;;0.90;;
3747;SDS011;1889;50.058;8.688;2023-04-24T12:18:11;0.80;;;0.80;;
3747;SDS011;1889;50.058;8.688;2023-04-24T12:20:41;0.90;;;0.90;;
3747;SDS011;1889;50.058;8.688;2023-04-24T12:23:10;1.80;;;0.90;;
3747;SDS011;1889;50.058;8.688;2023-04-24T12:25:39;1.02;;;1.00;;
3747;SDS011;1889;50.058;8.688;2023-04-24T12:28:10;2.50;;;1.32;;
3747;SDS011;1889;50.058;8.688;2023-04-24T12:30:41;1.40;;;1.20;;
3747;SDS011;1889;50.058;8.688;2023-04-24T12:33:12;1.55;;;1.35;;
3747;SDS011;1889;50.058;8.688;2023-04-24T12:35:43;3.65;;;1.60;;
3747;SDS011;1889;50.058;8.688;2023-04-24T12:38:13;1.47;;;1.37;;
3747;SDS011;1889;50.058;8.688;2023-04-24T12:40:45;1.62;;;1.37;;
3747;SDS011;1889;50.058;8.688;2023-04-24T12:43:15;1.50;;;1.40;;
3747;SDS011;1889;50.058;8.688;2023-04-24T12:45:47;1.85;;;1.20;;
3747;SDS011;1889;50.058;8.688;2023-04-24T12:48:16;2.85;;;1.80;;
3747;SDS011;1889;50.058;8.688;2023-04-24T12:50:45;2.40;;;2.20;;
3747;SDS011;1889;50.058;8.688;2023-04-24T12:53:15;4.12;;;2.62;;
3747;SDS011;1889;50.058;8.688;2023-04-24T12:55:44;3.00;;;2.60;;
3747;SDS011;1889;50.058;8.688;2023-04-24T12:58:15;3.35;;;2.42;;
3747;SDS011;1889;50.058;8.688;2023-04-24T13:00:44;5.12;;;2.50;;
3747;SDS011;1889;50.058;8.688;2023-04-24T13:03:14;2.47;;;2.15;;
3747;SDS011;1889;50.058;8.688;2023-04-24T13:05:43;2.40;;;2.20;;
3747;SDS011;1889;50.058;8.688;2023-04-24T13:08:12;2.98;;;2.55;;
3747;SDS011;1889;50.058;8.688;2023-04-24T13:10:42;3.30;;;2.70;;
3747;SDS011;1889;50.058;8.688;2023-04-24T13:13:11;2.33;;;2.10;;
3747;SDS011;1889;50.058;8.688;2023-04-24T13:15:40;3.00;;;2.52;;
3747;SDS011;1889;50.058;8.688;2023-04-24T13:18:10;2.70;;;2.50;;
3747;SDS011;1889;50.058;8.688;2023-04-24T13:20:39;4.45;;;2.52;;
3747;SDS011;1889;50.058;8.688;2023-04-24T13:23:09;4.25;;;2.70;;
3747;SDS011;1889;50.058;8.688;2023-04-24T13:25:38;4.85;;;3.92;;
3747;SDS011;1889;50.058;8.688;2023-04-24T13:28:07;4.65;;;3.02;;
3747;SDS011;1889;50.058;8.688;2023-04-24T13:30:37;3.50;;;2.62;;
3747;SDS011;1889;50.058;8.688;2023-04-24T13:33:06;5.25;;;3.72;;
3747;SDS011;1889;50.058;8.688;2023-04-24T13:35:35;2.92;;;2.40;;
3747;SDS011;1889;50.058;8.688;2023-04-24T13:38:05;2.50;;;2.30;;
3747;SDS011;1889;50.058;8.688;2023-04-24T13:40:34;2.60;;;2.40;;
3747;SDS011;1889;50.058;8.688;2023-04-24T13:43:03;2.50;;;2.30;;
3747;SDS011;1889;50.058;8.688;2023-04-24T13:45:33;3.12;;;2.55;;
3747;SDS011;1889;50.058;8.688;2023-04-24T13:48:02;3.95;;;2.50;;
3747;SDS011;1889;50.058;8.688;2023-04-24T13:50:31;2.95;;;2.33;;
3747;SDS011;1889;50.058;8.688;2023-04-24T13:53:01;4.05;;;2.45;;
3747;SDS011;1889;50.058;8.688;2023-04-24T13:55:31;4.10;;;2.25;;
3747;SDS011;1889;50.058;8.688;2023-04-24T13:58:00;3.87;;;2.50;;
3747;SDS011;1889;50.058;8.688;2023-04-24T14:00:29;4.78;;;2.22;;
3747;SDS011;1889;50.058;8.688;2023-04-24T14:02:59;2.08;;;1.72;;
3747;SDS011;1889;50.058;8.688;2023-04-24T14:05:28;2.30;;;2.08;;
3747;SDS011;1889;50.058;8.688;2023-04-24T14:07:58;3.70;;;1.70;;
3747;SDS011;1889;50.058;8.688;2023-04-24T14:10:27;5.10;;;2.00;;
3747;SDS011;1889;50.058;8.688;2023-04-24T14:12:57;3.05;;;2.30;;
3747;SDS011;1889;50.058;8.688;2023-04-24T14:15:26;3.85;;;2.37;;
3747;SDS011;1889;50.058;8.688;2023-04-24T14:17:56;3.83;;;3.17;;
3747;SDS011;1889;50.058;8.688;2023-04-24T14:20:25;2.92;;;2.58;;
3747;SDS011;1889;50.058;8.688;2023-04-24T14:22:54;2.98;;;2.77;;
3747;SDS011;1889;50.058;8.688;2023-04-24T14:25:25;2.42;;;2.22;;
3747;SDS011;1889;50.058;8.688;2023-04-24T14:27:55;2.92;;;2.52;;
3747;SDS011;1889;50.058;8.688;2023-04-24T14:30:24;2.65;;;2.30;;
3747;SDS011;1889;50.058;8.688;2023-04-24T14:32:53;2.35;;;2.10;;
3747;SDS011;1889;50.058;8.688;2023-04-24T14:35:23;2.83;;;2.37;;
3747;SDS011;1889;50.058;8.688;2023-04-24T14:37:53;2.72;;;2.30;;
3747;SDS011;1889;50.058;8.688;2023-04-24T14:40:22;2.87;;;2.55;;
3747;SDS011;1889;50.058;8.688;2023-04-24T14:42:52;2.92;;;2.33;;
3747;SDS011;1889;50.058;8.688;2023-04-24T14:45:21;5.42;;;2.65;;
3747;SDS011;1889;50.058;8.688;2023-04-24T14:47:51;3.17;;;2.70;;
3747;SDS011;1889;50.058;8.688;2023-04-24T14:50:20;6.05;;;2.50;;
3747;SDS011;1889;50.058;8.688;2023-04-24T14:52:49;2.67;;;2.33;;
3747;SDS011;1889;50.058;8.688;2023-04-24T14:55:19;2.72;;;2.00;;
3747;SDS011;1889;50.058;8.688;2023-04-24T14:57:48;2.65;;;2.45;;
3747;SDS011;1889;50.058;8.688;2023-04-24T15:00:18;3.15;;;2.27;;
3747;SDS011;1889;50.058;8.688;2023-04-24T15:02:48;3.40;;;2.45;;
3747;SDS011;1889;50.058;8.688;2023-04-24T15:05:17;2.58;;;2.37;;
3747;SDS011;1889;50.058;8.688;2023-04-24T15:07:47;4.37;;;2.65;;
3747;SDS011;1889;50.058;8.688;2023-04-24T15:10:16;3.40;;;2.52;;
3747;SDS011;1889;50.058;8.688;2023-04-24T15:12:45;2.80;;;2.50;;
3747;SDS011;1889;50.058;8.688;2023-04-24T15:15:15;5.72;;;3.05;;
3747;SDS011;1889;50.058;8.688;2023-04-24T15:17:44;2.55;;;2.33;;
3747;SDS011;1889;50.058;8.688;2023-04-24T15:20:13;4.17;;;2.17;;
3747;SDS011;1889;50.058;8.688;2023-04-24T15:22:43;2.67;;;2.33;;
3747;SDS011;1889;50.058;8.688;2023-04-24T15:25:12;4.05;;;2.20;;
3747;SDS011;1889;50.058;8.688;2023-04-24T15:27:45;2.60;;;2.00;;
3747;SDS011;1889;50.058;8.688;2023-04-24T15:30:14;5.47;;;2.83;;
3747;SDS011;1889;50.058;8.688;2023-04-24T15:32:44;5.03;;;3.12;;
3747;SDS011;1889;50.058;8.688;2023-04-24T15:35:13;2.90;;;2.60;;